sensor_id;sensor_type;location;lat;lon;timestamp;P1;durP1;ratioP1;P2;durP2;ratioP2
14736;SDS011;7459;53.590;10.062;2023-06-04T00:01:55;5.18;;;1.55;;
14736;SDS011;7459;53.590;10.062;2023-06-04T00:04:21;4.23;;;1.40;;
14736;SDS011;7459;53.590;10.062;2023-06-04T00:06:48;4.32;;;1.38;;
14736;SDS011;7459;53.590;10.062;2023-06-04T00:09:14;5.10;;;1.52;;
14736;SDS011;7459;53.590;10.062;2023-06-04T00:11:40;9.05;;;1.20;;
14736;SDS011;7459;53.590;10.062;2023-06-04T00:14:06;6.97;;;1.60;;
14736;SDS011;7459;53.590;10.062;2023-06-04T00:16:31;4.38;;;1.55;;
14736;SDS011;7459;53.590;10.062;2023-06-04T00:19:00;3.65;;;1.40;;
14736;SDS011;7459;53.590;10.062;2023-06-04T00:21:26;5.53;;;1.10;;
14736;SDS011;7459;53.590;10.062;2023-06-04T00:23:52;4.90;;;1.50;;
14736;SDS011;7459;53.590;10.062;2023-06-04T00:26:17;2.93;;;1.30;;
14736;SDS011;7459;53.590;10.062;2023-06-04T00:28:43;6.03;;;1.77;;
14736;SDS011;7459;53.590;10.062;2023-06-04T00:31:09;3.87;;;1.23;;
14736;SDS011;7459;53.590;10.062;2023-06-04T00:33:37;4.73;;;1.73;;
14736;SDS011;7459;53.590;10.062;2023-06-04T00:36:04;4.05;;;1.20;;
14736;SDS011;7459;53.590;10.062;2023-06-04T00:38:30;4.32;;;1.17;;
14736;SDS011;7459;53.590;10.062;2023-06-04T00:40:55;4.50;;;1.37;;
14736;SDS011;7459;53.590;10.062;2023-06-04T00:43:21;3.95;;;1.38;;
14736;SDS011;7459;53.590;10.062;2023-06-04T00:45:50;4.65;;;1.33;;
14736;SDS011;7459;53.590;10.062;2023-06-04T00:48:17;4.47;;;1.15;;
14736;SDS011;7459;53.590;10.062;2023-06-04T00:50:43;3.83;;;1.40;;
14736;SDS011;7459;53.590;10.062;2023-06-04T00:53:09;5.60;;;1.45;;
14736;SDS011;7459;53.590;10.062;2023-06-04T00:55:35;4.20;;;1.40;;
14736;SDS011;7459;53.590;10.062;2023-06-04T00:58:02;6.20;;;1.20;;
14736;SDS011;7459;53.590;10.062;2023-06-04T01:00:29;4.95;;;1.27;;
14736;SDS011;7459;53.590;10.062;2023-06-04T01:02:57;5.07;;;1.60;;
14736;SDS011;7459;53.590;10.062;2023-06-04T01:08:07;4.38;;;1.42;;
14736;SDS011;7459;53.590;10.062;2023-06-04T01:10:34;5.07;;;1.50;;
14736;SDS011;7459;53.590;10.062;2023-06-04T01:13:00;5.07;;;1.50;;
14736;SDS011;7459;53.590;10.062;2023-06-04T01:15:26;4.43;;;1.65;;
14736;SDS011;7459;53.590;10.062;2023-06-04T01:17:53;4.65;;;1.80;;
14736;SDS011;7459;53.590;10.062;2023-06-04T01:20:40;4.40;;;1.95;;
14736;SDS011;7459;53.590;10.062;2023-06-04T01:23:23;5.73;;;2.00;;
14736;SDS011;7459;53.590;10.062;2023-06-04T01:25:58;5.05;;;1.67;;
14736;SDS011;7459;53.590;10.062;2023-06-04T01:28:27;6.03;;;1.70;;
14736;SDS011;7459;53.590;10.062;2023-06-04T01:30:54;4.50;;;1.83;;
14736;SDS011;7459;53.590;10.062;2023-06-04T01:33:21;3.80;;;1.50;;
14736;SDS011;7459;53.590;10.062;2023-06-04T01:35:47;4.10;;;1.53;;
14736;SDS011;7459;53.590;10.062;2023-06-04T01:38:14;3.75;;;1.38;;
14736;SDS011;7459;53.590;10.062;2023-06-04T01:40:40;4.57;;;1.30;;
14736;SDS011;7459;53.590;10.062;2023-06-04T01:43:06;4.43;;;1.70;;
14736;SDS011;7459;53.590;10.062;2023-06-04T01:45:32;6.88;;;2.15;;
14736;SDS011;7459;53.590;10.062;2023-06-04T01:48:00;7.55;;;2.17;;
14736;SDS011;7459;53.590;10.062;2023-06-04T01:50:27;4.90;;;1.55;;
14736;SDS011;7459;53.590;10.062;2023-06-04T01:52:53;6.90;;;1.87;;
14736;SDS011;7459;53.590;10.062;2023-06-04T01:55:19;5.28;;;1.77;;
14736;SDS011;7459;53.590;10.062;2023-06-04T01:57:45;5.78;;;2.13;;
14736;SDS011;7459;53.590;10.062;2023-06-04T02:00:12;4.68;;;2.08;;
14736;SDS011;7459;53.590;10.062;2023-06-04T02:02:42;5.35;;;1.50;;
14736;SDS011;7459;53.590;10.062;2023-06-04T02:05:36;4.17;;;1.53;;
14736;SDS011;7459;53.590;10.062;2023-06-04T02:08:02;4.85;;;1.80;;
14736;SDS011;7459;53.590;10.062;2023-06-04T02:10:29;5.28;;;1.88;;
14736;SDS011;7459;53.590;10.062;2023-06-04T02:13:00;4.40;;;1.67;;
14736;SDS011;7459;53.590;10.062;2023-06-04T02:15:30;7.83;;;2.37;;
14736;SDS011;7459;53.590;10.062;2023-06-04T02:17:58;5.57;;;2.00;;
14736;SDS011;7459;53.590;10.062;2023-06-04T02:20:47;4.72;;;1.70;;
14736;SDS011;7459;53.590;10.062;2023-06-04T02:23:15;4.53;;;1.92;;
14736;SDS011;7459;53.590;10.062;2023-06-04T02:25:43;8.35;;;2.22;;
14736;SDS011;7459;53.590;10.062;2023-06-04T02:28:10;5.47;;;1.83;;
14736;SDS011;7459;53.590;10.062;2023-06-04T02:30:36;6.40;;;2.08;;
14736;SDS011;7459;53.590;10.062;2023-06-04T02:33:02;7.18;;;1.63;;
14736;SDS011;7459;53.590;10.062;2023-06-04T02:35:28;5.43;;;1.90;;
14736;SDS011;7459;53.590;10.062;2023-06-04T02:37:57;6.83;;;1.97;;
14736;SDS011;7459;53.590;10.062;2023-06-04T02:40:24;4.57;;;1.77;;
14736;SDS011;7459;53.590;10.062;2023-06-04T02:42:51;8.95;;;2.33;;
14736;SDS011;7459;53.590;10.062;2023-06-04T02:45:18;6.63;;;2.25;;
14736;SDS011;7459;53.590;10.062;2023-06-04T02:47:44;4.63;;;2.10;;
14736;SDS011;7459;53.590;10.062;2023-06-04T02:50:09;5.95;;;2.08;;
14736;SDS011;7459;53.590;10.062;2023-06-04T02:52:36;6.93;;;2.35;;
14736;SDS011;7459;53.590;10.062;2023-06-04T02:55:02;6.07;;;2.03;;
14736;SDS011;7459;53.590;10.062;2023-06-04T02:57:29;5.80;;;2.10;;
14736;SDS011;7459;53.590;10.062;2023-06-04T02:59:55;5.90;;;3.27;;
14736;SDS011;7459;53.590;10.062;2023-06-04T03:02:21;4.40;;;2.10;;
14736;SDS011;7459;53.590;10.062;2023-06-04T03:04:47;5.03;;;1.90;;
14736;SDS011;7459;53.590;10.062;2023-06-04T03:07:15;7.18;;;2.10;;
14736;SDS011;7459;53.590;10.062;2023-06-04T03:09:45;7.63;;;2.10;;
14736;SDS011;7459;53.590;10.062;2023-06-04T03:12:12;6.10;;;2.03;;
14736;SDS011;7459;53.590;10.062;2023-06-04T03:14:38;6.20;;;1.95;;
14736;SDS011;7459;53.590;10.062;2023-06-04T03:17:03;4.90;;;1.97;;
14736;SDS011;7459;53.590;10.062;2023-06-04T03:19:35;6.13;;;2.33;;
14736;SDS011;7459;53.590;10.062;2023-06-04T03:22:02;5.95;;;2.30;;
14736;SDS011;7459;53.590;10.062;2023-06-04T03:24:32;6.03;;;2.05;;
14736;SDS011;7459;53.590;10.062;2023-06-04T03:27:03;3.83;;;1.73;;
14736;SDS011;7459;53.590;10.062;2023-06-04T03:29:31;6.47;;;2.40;;
14736;SDS011;7459;53.590;10.062;2023-06-04T03:31:57;7.90;;;2.07;;
14736;SDS011;7459;53.590;10.062;2023-06-04T03:34:24;5.68;;;1.90;;
14736;SDS011;7459;53.590;10.062;2023-06-04T03:36:55;4.78;;;2.20;;
14736;SDS011;7459;53.590;10.062;2023-06-04T03:39:21;6.50;;;2.08;;
14736;SDS011;7459;53.590;10.062;2023-06-04T03:41:47;6.57;;;2.10;;
14736;SDS011;7459;53.590;10.062;2023-06-04T03:44:13;9.07;;;1.97;;
14736;SDS011;7459;53.590;10.062;2023-06-04T03:46:43;6.28;;;2.10;;
14736;SDS011;7459;53.590;10.062;2023-06-04T03:49:09;9.65;;;2.20;;
14736;SDS011;7459;53.590;10.062;2023-06-04T03:51:36;5.18;;;2.10;;
14736;SDS011;7459;53.590;10.062;2023-06-04T03:54:06;5.20;;;2.00;;
14736;SDS011;7459;53.590;10.062;2023-06-04T03:56:32;7.07;;;2.63;;
14736;SDS011;7459;53.590;10.062;2023-06-04T03:58:58;4.85;;;1.95;;
14736;SDS011;7459;53.590;10.062;2023-06-04T04:01:23;5.83;;;2.10;;
14736;SDS011;7459;53.590;10.062;2023-06-04T04:03:50;4.57;;;1.83;;
14736;SDS011;7459;53.590;10.062;2023-06-04T04:06:17;5.22;;;2.13;;
14736;SDS011;7459;53.590;10.062;2023-06-04T04:08:43;4.75;;;1.85;;
14736;SDS011;7459;53.590;10.062;2023-06-04T04:11:10;5.80;;;2.00;;
14736;SDS011;7459;53.590;10.062;2023-06-04T04:13:39;6.03;;;2.20;;
14736;SDS011;7459;53.590;10.062;2023-06-04T04:16:05;5.82;;;1.90;;
14736;SDS011;7459;53.590;10.062;2023-06-04T04:18:35;4.80;;;1.92;;
14736;SDS011;7459;53.590;10.062;2023-06-04T04:21:02;5.47;;;1.80;;
14736;SDS011;7459;53.590;10.062;2023-06-04T04:23:29;8.15;;;1.60;;
14736;SDS011;7459;53.590;10.062;2023-06-04T04:25:56;5.18;;;1.52;;
14736;SDS011;7459;53.590;10.062;2023-06-04T04:28:24;5.25;;;1.70;;
14736;SDS011;7459;53.590;10.062;2023-06-04T04:30:53;4.93;;;1.52;;
14736;SDS011;7459;53.590;10.062;2023-06-04T04:33:21;5.83;;;2.30;;
14736;SDS011;7459;53.590;10.062;2023-06-04T04:35:49;5.18;;;1.77;;
14736;SDS011;7459;53.590;10.062;2023-06-04T04:38:15;6.78;;;1.92;;
14736;SDS011;7459;53.590;10.062;2023-06-04T04:40:42;4.38;;;1.70;;
14736;SDS011;7459;53.590;10.062;2023-06-04T04:43:08;5.10;;;1.70;;
14736;SDS011;7459;53.590;10.062;2023-06-04T04:45:34;5.07;;;1.80;;
14736;SDS011;7459;53.590;10.062;2023-06-04T04:48:00;4.10;;;1.50;;
14736;SDS011;7459;53.590;10.062;2023-06-04T04:50:25;7.60;;;1.77;;
14736;SDS011;7459;53.590;10.062;2023-06-04T04:52:51;6.40;;;1.20;;
14736;SDS011;7459;53.590;10.062;2023-06-04T04:55:17;4.87;;;1.40;;
14736;SDS011;7459;53.590;10.062;2023-06-04T04:57:42;5.70;;;1.63;;
14736;SDS011;7459;53.590;10.062;2023-06-04T05:00:08;6.40;;;1.50;;
14736;SDS011;7459;53.590;10.062;2023-06-04T05:02:35;4.03;;;1.42;;
14736;SDS011;7459;53.590;10.062;2023-06-04T05:05:01;4.03;;;1.40;;
14736;SDS011;7459;53.590;10.062;2023-06-04T05:07:28;7.13;;;1.50;;
14736;SDS011;7459;53.590;10.062;2023-06-04T05:09:54;4.45;;;1.08;;
14736;SDS011;7459;53.590;10.062;2023-06-04T05:12:20;6.32;;;1.83;;
14736;SDS011;7459;53.590;10.062;2023-06-04T05:14:45;4.03;;;1.30;;
14736;SDS011;7459;53.590;10.062;2023-06-04T05:17:11;6.75;;;1.17;;
14736;SDS011;7459;53.590;10.062;2023-06-04T05:19:38;6.32;;;1.67;;
14736;SDS011;7459;53.590;10.062;2023-06-04T05:22:04;5.10;;;1.20;;
14736;SDS011;7459;53.590;10.062;2023-06-04T05:24:30;6.22;;;1.17;;
14736;SDS011;7459;53.590;10.062;2023-06-04T05:26:57;6.47;;;1.48;;
14736;SDS011;7459;53.590;10.062;2023-06-04T05:29:23;6.25;;;1.58;;
14736;SDS011;7459;53.590;10.062;2023-06-04T05:31:49;6.10;;;1.50;;
14736;SDS011;7459;53.590;10.062;2023-06-04T05:34:15;6.22;;;1.13;;
14736;SDS011;7459;53.590;10.062;2023-06-04T05:36:41;6.20;;;1.20;;
14736;SDS011;7459;53.590;10.062;2023-06-04T05:39:07;5.93;;;1.13;;
14736;SDS011;7459;53.590;10.062;2023-06-04T05:41:34;6.10;;;1.03;;
14736;SDS011;7459;53.590;10.062;2023-06-04T05:44:01;4.95;;;1.02;;
14736;SDS011;7459;53.590;10.062;2023-06-04T05:46:28;7.97;;;1.42;;
14736;SDS011;7459;53.590;10.062;2023-06-04T05:48:54;4.35;;;1.02;;
14736;SDS011;7459;53.590;10.062;2023-06-04T05:51:20;4.87;;;1.23;;
14736;SDS011;7459;53.590;10.062;2023-06-04T05:53:46;6.47;;;0.98;;
14736;SDS011;7459;53.590;10.062;2023-06-04T05:56:12;8.65;;;1.20;;
14736;SDS011;7459;53.590;10.062;2023-06-04T05:58:38;5.13;;;1.20;;
14736;SDS011;7459;53.590;10.062;2023-06-04T06:01:04;9.43;;;1.33;;
14736;SDS011;7459;53.590;10.062;2023-06-04T06:03:29;5.93;;;0.80;;
14736;SDS011;7459;53.590;10.062;2023-06-04T06:05:55;4.57;;;0.80;;
14736;SDS011;7459;53.590;10.062;2023-06-04T06:08:23;7.57;;;1.10;;
14736;SDS011;7459;53.590;10.062;2023-06-04T06:10:49;4.20;;;0.60;;
14736;SDS011;7459;53.590;10.062;2023-06-04T06:13:15;8.87;;;1.07;;
14736;SDS011;7459;53.590;10.062;2023-06-04T06:15:40;5.93;;;1.20;;
14736;SDS011;7459;53.590;10.062;2023-06-04T06:18:07;7.43;;;0.98;;
14736;SDS011;7459;53.590;10.062;2023-06-04T06:20:32;4.53;;;0.73;;
14736;SDS011;7459;53.590;10.062;2023-06-04T06:23:05;7.10;;;1.17;;
14736;SDS011;7459;53.590;10.062;2023-06-04T06:25:31;7.70;;;1.48;;
14736;SDS011;7459;53.590;10.062;2023-06-04T06:27:57;4.87;;;1.00;;
14736;SDS011;7459;53.590;10.062;2023-06-04T06:30:23;7.25;;;1.35;;
14736;SDS011;7459;53.590;10.062;2023-06-04T06:32:48;6.00;;;1.10;;
14736;SDS011;7459;53.590;10.062;2023-06-04T06:35:14;5.22;;;0.98;;
14736;SDS011;7459;53.590;10.062;2023-06-04T06:37:41;7.68;;;0.93;;
14736;SDS011;7459;53.590;10.062;2023-06-04T06:40:08;5.13;;;1.13;;
14736;SDS011;7459;53.590;10.062;2023-06-04T06:42:35;8.73;;;1.63;;
14736;SDS011;7459;53.590;10.062;2023-06-04T06:45:00;6.10;;;1.20;;
14736;SDS011;7459;53.590;10.062;2023-06-04T06:47:26;7.88;;;1.00;;
14736;SDS011;7459;53.590;10.062;2023-06-04T06:49:52;6.43;;;1.00;;
14736;SDS011;7459;53.590;10.062;2023-06-04T06:52:18;5.72;;;1.20;;
14736;SDS011;7459;53.590;10.062;2023-06-04T06:54:44;3.83;;;1.15;;
14736;SDS011;7459;53.590;10.062;2023-06-04T06:57:11;5.13;;;0.67;;
14736;SDS011;7459;53.590;10.062;2023-06-04T06:59:37;4.93;;;1.08;;
14736;SDS011;7459;53.590;10.062;2023-06-04T07:02:03;3.60;;;0.80;;
14736;SDS011;7459;53.590;10.062;2023-06-04T07:04:30;5.97;;;1.02;;
14736;SDS011;7459;53.590;10.062;2023-06-04T07:06:55;5.83;;;1.10;;
14736;SDS011;7459;53.590;10.062;2023-06-04T07:09:21;7.15;;;1.08;;
14736;SDS011;7459;53.590;10.062;2023-06-04T07:11:47;5.23;;;0.90;;
14736;SDS011;7459;53.590;10.062;2023-06-04T07:14:14;4.57;;;0.90;;
14736;SDS011;7459;53.590;10.062;2023-06-04T07:16:39;5.07;;;0.90;;
14736;SDS011;7459;53.590;10.062;2023-06-04T07:19:05;6.07;;;1.00;;
14736;SDS011;7459;53.590;10.062;2023-06-04T07:21:31;4.30;;;0.80;;
14736;SDS011;7459;53.590;10.062;2023-06-04T07:23:57;6.93;;;1.00;;
14736;SDS011;7459;53.590;10.062;2023-06-04T07:26:22;7.03;;;1.88;;
14736;SDS011;7459;53.590;10.062;2023-06-04T07:28:50;7.10;;;1.10;;
14736;SDS011;7459;53.590;10.062;2023-06-04T07:31:16;7.10;;;1.30;;
14736;SDS011;7459;53.590;10.062;2023-06-04T07:33:42;5.45;;;1.40;;
14736;SDS011;7459;53.590;10.062;2023-06-04T07:36:14;5.75;;;0.60;;
14736;SDS011;7459;53.590;10.062;2023-06-04T07:38:41;5.20;;;0.87;;
14736;SDS011;7459;53.590;10.062;2023-06-04T07:41:07;4.63;;;0.98;;
14736;SDS011;7459;53.590;10.062;2023-06-04T07:43:33;11.57;;;1.00;;
14736;SDS011;7459;53.590;10.062;2023-06-04T07:46:02;5.85;;;1.33;;
14736;SDS011;7459;53.590;10.062;2023-06-04T07:48:29;5.80;;;1.00;;
14736;SDS011;7459;53.590;10.062;2023-06-04T07:50:57;4.63;;;0.93;;
14736;SDS011;7459;53.590;10.062;2023-06-04T07:53:25;6.90;;;0.98;;
14736;SDS011;7459;53.590;10.062;2023-06-04T07:55:51;3.85;;;0.93;;
14736;SDS011;7459;53.590;10.062;2023-06-04T07:58:17;6.35;;;1.33;;
14736;SDS011;7459;53.590;10.062;2023-06-04T08:00:43;7.03;;;1.17;;
14736;SDS011;7459;53.590;10.062;2023-06-04T08:03:09;5.10;;;0.95;;
14736;SDS011;7459;53.590;10.062;2023-06-04T08:05:35;4.22;;;0.85;;
14736;SDS011;7459;53.590;10.062;2023-06-04T08:08:01;6.50;;;1.00;;
14736;SDS011;7459;53.590;10.062;2023-06-04T08:10:28;6.47;;;0.80;;
14736;SDS011;7459;53.590;10.062;2023-06-04T08:12:54;4.35;;;0.80;;
14736;SDS011;7459;53.590;10.062;2023-06-04T08:15:20;4.65;;;0.82;;
14736;SDS011;7459;53.590;10.062;2023-06-04T08:17:46;6.33;;;1.23;;
14736;SDS011;7459;53.590;10.062;2023-06-04T08:20:11;3.33;;;0.50;;
14736;SDS011;7459;53.590;10.062;2023-06-04T08:22:37;6.37;;;1.00;;
14736;SDS011;7459;53.590;10.062;2023-06-04T08:25:03;3.63;;;0.90;;
14736;SDS011;7459;53.590;10.062;2023-06-04T08:27:33;4.68;;;0.77;;
14736;SDS011;7459;53.590;10.062;2023-06-04T08:29:59;5.57;;;0.70;;
14736;SDS011;7459;53.590;10.062;2023-06-04T08:32:25;2.95;;;0.70;;
14736;SDS011;7459;53.590;10.062;2023-06-04T08:34:51;3.80;;;0.68;;
14736;SDS011;7459;53.590;10.062;2023-06-04T08:37:17;3.30;;;1.10;;
14736;SDS011;7459;53.590;10.062;2023-06-04T08:39:43;2.90;;;0.50;;
14736;SDS011;7459;53.590;10.062;2023-06-04T08:42:15;4.63;;;0.40;;
14736;SDS011;7459;53.590;10.062;2023-06-04T08:44:54;5.03;;;0.57;;
14736;SDS011;7459;53.590;10.062;2023-06-04T08:47:21;5.13;;;0.50;;
14736;SDS011;7459;53.590;10.062;2023-06-04T08:49:51;4.32;;;0.43;;
14736;SDS011;7459;53.590;10.062;2023-06-04T08:52:17;2.20;;;0.40;;
14736;SDS011;7459;53.590;10.062;2023-06-04T08:54:48;4.50;;;0.53;;
14736;SDS011;7459;53.590;10.062;2023-06-04T08:57:16;4.25;;;0.32;;
14736;SDS011;7459;53.590;10.062;2023-06-04T08:59:44;4.65;;;0.40;;
14736;SDS011;7459;53.590;10.062;2023-06-04T09:02:12;4.07;;;0.38;;
14736;SDS011;7459;53.590;10.062;2023-06-04T09:04:39;2.80;;;0.65;;
14736;SDS011;7459;53.590;10.062;2023-06-04T09:07:05;2.60;;;0.37;;
14736;SDS011;7459;53.590;10.062;2023-06-04T09:09:35;2.22;;;0.40;;
14736;SDS011;7459;53.590;10.062;2023-06-04T09:12:04;3.83;;;0.50;;
14736;SDS011;7459;53.590;10.062;2023-06-04T09:14:36;2.30;;;0.32;;
14736;SDS011;7459;53.590;10.062;2023-06-04T09:17:02;7.55;;;0.57;;
14736;SDS011;7459;53.590;10.062;2023-06-04T09:19:27;3.20;;;0.30;;
14736;SDS011;7459;53.590;10.062;2023-06-04T09:21:57;5.03;;;0.68;;
14736;SDS011;7459;53.590;10.062;2023-06-04T09:24:26;4.90;;;0.67;;
14736;SDS011;7459;53.590;10.062;2023-06-04T09:27:14;4.20;;;0.73;;
14736;SDS011;7459;53.590;10.062;2023-06-04T09:29:51;3.08;;;0.55;;
14736;SDS011;7459;53.590;10.062;2023-06-04T09:32:23;2.97;;;0.52;;
14736;SDS011;7459;53.590;10.062;2023-06-04T09:34:53;2.20;;;0.40;;
14736;SDS011;7459;53.590;10.062;2023-06-04T09:37:20;3.07;;;0.60;;
14736;SDS011;7459;53.590;10.062;2023-06-04T09:39:54;2.72;;;0.45;;
14736;SDS011;7459;53.590;10.062;2023-06-04T09:42:20;4.90;;;0.80;;
14736;SDS011;7459;53.590;10.062;2023-06-04T09:44:47;2.00;;;0.30;;
14736;SDS011;7459;53.590;10.062;2023-06-04T09:47:13;6.17;;;0.50;;
14736;SDS011;7459;53.590;10.062;2023-06-04T09:49:43;2.70;;;0.60;;
14736;SDS011;7459;53.590;10.062;2023-06-04T09:52:16;2.22;;;0.52;;
14736;SDS011;7459;53.590;10.062;2023-06-04T09:54:42;5.20;;;0.60;;
14736;SDS011;7459;53.590;10.062;2023-06-04T09:57:18;3.75;;;0.60;;
14736;SDS011;7459;53.590;10.062;2023-06-04T09:59:49;3.47;;;0.70;;
14736;SDS011;7459;53.590;10.062;2023-06-04T10:02:18;3.55;;;1.10;;
14736;SDS011;7459;53.590;10.062;2023-06-04T10:04:55;2.35;;;0.45;;
14736;SDS011;7459;53.590;10.062;2023-06-04T10:07:24;3.75;;;0.82;;
14736;SDS011;7459;53.590;10.062;2023-06-04T10:09:51;2.17;;;0.50;;
14736;SDS011;7459;53.590;10.062;2023-06-04T10:12:20;3.93;;;0.47;;
14736;SDS011;7459;53.590;10.062;2023-06-04T10:14:55;3.75;;;0.50;;
14736;SDS011;7459;53.590;10.062;2023-06-04T10:17:28;2.80;;;0.40;;
14736;SDS011;7459;53.590;10.062;2023-06-04T10:19:55;4.05;;;0.60;;
14736;SDS011;7459;53.590;10.062;2023-06-04T10:22:23;4.20;;;0.75;;
14736;SDS011;7459;53.590;10.062;2023-06-04T10:24:49;3.30;;;0.40;;
14736;SDS011;7459;53.590;10.062;2023-06-04T10:27:18;4.10;;;0.50;;
14736;SDS011;7459;53.590;10.062;2023-06-04T10:29:45;2.72;;;0.30;;
14736;SDS011;7459;53.590;10.062;2023-06-04T10:32:11;3.38;;;0.65;;
14736;SDS011;7459;53.590;10.062;2023-06-04T10:34:38;3.73;;;0.50;;
14736;SDS011;7459;53.590;10.062;2023-06-04T10:37:03;4.47;;;0.32;;
14736;SDS011;7459;53.590;10.062;2023-06-04T10:39:30;2.85;;;0.90;;
14736;SDS011;7459;53.590;10.062;2023-06-04T10:42:00;5.93;;;0.75;;
14736;SDS011;7459;53.590;10.062;2023-06-04T10:44:28;4.40;;;0.53;;
14736;SDS011;7459;53.590;10.062;2023-06-04T10:47:18;3.08;;;0.57;;
14736;SDS011;7459;53.590;10.062;2023-06-04T10:49:52;3.80;;;0.40;;
14736;SDS011;7459;53.590;10.062;2023-06-04T10:52:19;4.05;;;0.47;;
14736;SDS011;7459;53.590;10.062;2023-06-04T10:54:46;3.90;;;0.60;;
14736;SDS011;7459;53.590;10.062;2023-06-04T10:57:18;4.13;;;0.70;;
14736;SDS011;7459;53.590;10.062;2023-06-04T10:59:57;2.95;;;0.45;;
14736;SDS011;7459;53.590;10.062;2023-06-04T11:02:25;4.53;;;0.70;;
14736;SDS011;7459;53.590;10.062;2023-06-04T11:05:01;4.20;;;0.77;;
14736;SDS011;7459;53.590;10.062;2023-06-04T11:07:45;3.67;;;0.70;;
14736;SDS011;7459;53.590;10.062;2023-06-04T11:10:14;3.73;;;0.47;;
14736;SDS011;7459;53.590;10.062;2023-06-04T11:12:42;2.33;;;0.50;;
14736;SDS011;7459;53.590;10.062;2023-06-04T11:15:13;2.88;;;0.65;;
14736;SDS011;7459;53.590;10.062;2023-06-04T11:17:50;4.55;;;0.82;;
14736;SDS011;7459;53.590;10.062;2023-06-04T11:20:20;6.07;;;0.88;;
14736;SDS011;7459;53.590;10.062;2023-06-04T11:25:18;3.45;;;0.63;;
14736;SDS011;7459;53.590;10.062;2023-06-04T11:27:47;2.63;;;0.70;;
14736;SDS011;7459;53.590;10.062;2023-06-04T11:30:15;3.15;;;0.50;;
14736;SDS011;7459;53.590;10.062;2023-06-04T11:32:41;3.45;;;0.70;;
14736;SDS011;7459;53.590;10.062;2023-06-04T11:35:07;2.73;;;0.50;;
14736;SDS011;7459;53.590;10.062;2023-06-04T11:37:33;3.85;;;0.60;;
14736;SDS011;7459;53.590;10.062;2023-06-04T11:39:59;2.20;;;0.35;;
14736;SDS011;7459;53.590;10.062;2023-06-04T11:42:26;3.65;;;0.50;;
14736;SDS011;7459;53.590;10.062;2023-06-04T11:44:55;5.30;;;0.90;;
14736;SDS011;7459;53.590;10.062;2023-06-04T11:47:21;3.42;;;0.57;;
14736;SDS011;7459;53.590;10.062;2023-06-04T11:49:53;5.07;;;0.65;;
14736;SDS011;7459;53.590;10.062;2023-06-04T11:52:21;3.05;;;0.70;;
14736;SDS011;7459;53.590;10.062;2023-06-04T11:54:47;2.85;;;0.30;;
14736;SDS011;7459;53.590;10.062;2023-06-04T11:57:13;5.73;;;0.60;;
14736;SDS011;7459;53.590;10.062;2023-06-04T11:59:39;5.88;;;0.80;;
14736;SDS011;7459;53.590;10.062;2023-06-04T12:02:05;3.78;;;0.73;;
14736;SDS011;7459;53.590;10.062;2023-06-04T12:04:32;3.75;;;0.60;;
14736;SDS011;7459;53.590;10.062;2023-06-04T12:06:59;2.80;;;0.50;;
14736;SDS011;7459;53.590;10.062;2023-06-04T12:09:28;4.68;;;0.60;;
14736;SDS011;7459;53.590;10.062;2023-06-04T12:12:06;3.35;;;0.40;;
14736;SDS011;7459;53.590;10.062;2023-06-04T12:14:33;3.67;;;0.68;;
14736;SDS011;7459;53.590;10.062;2023-06-04T12:17:00;3.33;;;0.60;;
14736;SDS011;7459;53.590;10.062;2023-06-04T12:19:27;2.30;;;0.50;;
14736;SDS011;7459;53.590;10.062;2023-06-04T12:21:59;4.88;;;0.65;;
14736;SDS011;7459;53.590;10.062;2023-06-04T12:24:33;5.07;;;1.77;;
14736;SDS011;7459;53.590;10.062;2023-06-04T12:27:10;3.77;;;0.93;;
14736;SDS011;7459;53.590;10.062;2023-06-04T12:29:36;3.53;;;0.40;;
14736;SDS011;7459;53.590;10.062;2023-06-04T12:34:29;3.73;;;0.60;;
14736;SDS011;7459;53.590;10.062;2023-06-04T12:36:56;5.43;;;0.88;;
14736;SDS011;7459;53.590;10.062;2023-06-04T12:39:22;4.15;;;0.90;;
14736;SDS011;7459;53.590;10.062;2023-06-04T12:41:48;2.53;;;0.47;;
14736;SDS011;7459;53.590;10.062;2023-06-04T12:44:13;5.50;;;0.55;;
14736;SDS011;7459;53.590;10.062;2023-06-04T12:46:39;3.30;;;0.40;;
14736;SDS011;7459;53.590;10.062;2023-06-04T12:49:05;4.03;;;0.37;;
14736;SDS011;7459;53.590;10.062;2023-06-04T12:51:31;2.50;;;0.52;;
14736;SDS011;7459;53.590;10.062;2023-06-04T12:53:57;2.50;;;0.40;;
14736;SDS011;7459;53.590;10.062;2023-06-04T12:56:23;3.30;;;0.60;;
14736;SDS011;7459;53.590;10.062;2023-06-04T12:58:50;2.33;;;0.40;;
14736;SDS011;7459;53.590;10.062;2023-06-04T13:01:16;3.22;;;0.50;;
14736;SDS011;7459;53.590;10.062;2023-06-04T13:03:42;3.83;;;0.50;;
14736;SDS011;7459;53.590;10.062;2023-06-04T13:06:07;2.22;;;0.40;;
14736;SDS011;7459;53.590;10.062;2023-06-04T13:08:33;2.63;;;0.40;;
14736;SDS011;7459;53.590;10.062;2023-06-04T13:11:00;4.10;;;0.55;;
14736;SDS011;7459;53.590;10.062;2023-06-04T13:13:26;2.73;;;0.60;;
14736;SDS011;7459;53.590;10.062;2023-06-04T13:15:53;2.80;;;0.40;;
14736;SDS011;7459;53.590;10.062;2023-06-04T13:18:18;2.58;;;0.73;;
14736;SDS011;7459;53.590;10.062;2023-06-04T13:20:44;4.27;;;0.50;;
14736;SDS011;7459;53.590;10.062;2023-06-04T13:23:10;2.88;;;0.50;;
14736;SDS011;7459;53.590;10.062;2023-06-04T13:25:37;3.67;;;0.60;;
14736;SDS011;7459;53.590;10.062;2023-06-04T13:28:03;2.97;;;0.47;;
14736;SDS011;7459;53.590;10.062;2023-06-04T13:30:29;2.67;;;0.73;;
14736;SDS011;7459;53.590;10.062;2023-06-04T13:32:55;2.53;;;0.50;;
14736;SDS011;7459;53.590;10.062;2023-06-04T13:35:23;13.32;;;1.35;;
14736;SDS011;7459;53.590;10.062;2023-06-04T13:37:49;4.30;;;0.50;;
14736;SDS011;7459;53.590;10.062;2023-06-04T13:40:15;4.10;;;0.70;;
14736;SDS011;7459;53.590;10.062;2023-06-04T13:42:41;2.13;;;0.40;;
14736;SDS011;7459;53.590;10.062;2023-06-04T13:45:10;2.25;;;0.40;;
14736;SDS011;7459;53.590;10.062;2023-06-04T13:47:35;2.37;;;0.30;;
14736;SDS011;7459;53.590;10.062;2023-06-04T13:50:01;3.63;;;0.43;;
14736;SDS011;7459;53.590;10.062;2023-06-04T13:52:28;3.60;;;0.77;;
14736;SDS011;7459;53.590;10.062;2023-06-04T13:54:54;3.47;;;0.50;;
14736;SDS011;7459;53.590;10.062;2023-06-04T13:57:20;2.55;;;0.68;;
14736;SDS011;7459;53.590;10.062;2023-06-04T13:59:46;4.30;;;0.40;;
14736;SDS011;7459;53.590;10.062;2023-06-04T14:02:14;4.57;;;0.43;;
14736;SDS011;7459;53.590;10.062;2023-06-04T14:04:40;2.78;;;0.60;;
14736;SDS011;7459;53.590;10.062;2023-06-04T14:07:05;4.97;;;1.17;;
14736;SDS011;7459;53.590;10.062;2023-06-04T14:09:31;4.97;;;0.77;;
14736;SDS011;7459;53.590;10.062;2023-06-04T14:11:57;2.63;;;0.75;;
14736;SDS011;7459;53.590;10.062;2023-06-04T14:14:23;3.42;;;0.63;;
14736;SDS011;7459;53.590;10.062;2023-06-04T14:16:49;5.03;;;0.60;;
14736;SDS011;7459;53.590;10.062;2023-06-04T14:19:15;2.73;;;0.60;;
14736;SDS011;7459;53.590;10.062;2023-06-04T14:21:42;3.60;;;0.80;;
14736;SDS011;7459;53.590;10.062;2023-06-04T14:24:09;7.82;;;0.60;;
14736;SDS011;7459;53.590;10.062;2023-06-04T14:26:35;3.80;;;0.68;;
14736;SDS011;7459;53.590;10.062;2023-06-04T14:29:01;5.33;;;0.70;;
14736;SDS011;7459;53.590;10.062;2023-06-04T14:31:27;3.25;;;0.65;;
14736;SDS011;7459;53.590;10.062;2023-06-04T14:33:53;4.93;;;0.93;;
14736;SDS011;7459;53.590;10.062;2023-06-04T14:36:19;2.85;;;0.57;;
14736;SDS011;7459;53.590;10.062;2023-06-04T14:38:45;4.10;;;0.40;;
14736;SDS011;7459;53.590;10.062;2023-06-04T14:41:12;3.83;;;0.70;;
14736;SDS011;7459;53.590;10.062;2023-06-04T14:43:39;3.72;;;0.60;;
14736;SDS011;7459;53.590;10.062;2023-06-04T14:46:05;5.10;;;1.20;;
14736;SDS011;7459;53.590;10.062;2023-06-04T14:48:31;2.67;;;0.52;;
14736;SDS011;7459;53.590;10.062;2023-06-04T14:50:56;4.10;;;0.90;;
14736;SDS011;7459;53.590;10.062;2023-06-04T14:53:22;3.07;;;0.77;;
14736;SDS011;7459;53.590;10.062;2023-06-04T14:55:48;2.38;;;0.57;;
14736;SDS011;7459;53.590;10.062;2023-06-04T14:58:14;3.57;;;0.93;;